Airfield :
LOGIN :

Register | Disclaimer

   EN    FR    IT 

 










Legend :    VFR   Marginal VFR   IFR   Intensive IFR   Very Intensive IFR
Visi :
Ceiling :
>= 8 km
>= 3000ft
5 to 8 km
1000 to 3000 ft
1500m to 5 km
500 to 1000 ft
800 to 1500m
200 to 500 ft
< 800m
< 200 ft
Symbols :   Thunderstorms  Fog  Heavy snow  Heavy precipitations  Wind > 20 kt
SIGMETs :     Misc.  Thunderstorms  Icing  Turbulence  Mountain Waves  Volcanic Ashes






- Airport Elevation : 231 ft
- IATA code : WTN


EGXW - RAF Waddington

CURRENT METAR :
  • 140950Z 01006KT 9999 FEW036 08/M01 Q1034 NOSIG RMK BLU BLU

EXPIRED METARs :
  • 140920Z 05007KT 9999 FEW032 08/M02 Q1034 NOSIG RMK BLU BLU
  • 140850Z 05006KT 9999 FEW030 07/M01 Q1034 NOSIG RMK BLU BLU
  • 140820Z 06006KT 9999 FEW030 07/01 Q1034 NOSIG RMK BLU BLU
  • 140750Z 05004KT 9999 FEW030 06/02 Q1034 NOSIG RMK BLU BLU
  • 140720Z 03005KT CAVOK 05/01 Q1034 NOSIG RMK BLU BLU
  • 140650Z 03004KT CAVOK 04/01 Q1034 NOSIG RMK BLU BLU

TAF TAF EGXW
Valid from the 14 at 09:00 until the 15 at 03:00 UTC


140752Z 1409/1503 04006KT 9999 FEW035



MET'MAP, your aeronautical weather chart ! - Copyright ORBIFLY December 2007 - Disclaimer

ORBIFLY MET'MAP TEAM :

Programming & Development : Alexandra Zaïnal
Concept & original design : Baudouin d'Aumeries
Assistance for programming : Marc-Olivier Méhu
Technical & hardware support : Manuel Goepfert

Contact : metmap@orbifly.com




SOURCES & CREDITS :

   NOAA